Time;durP1;ratioP1;P1;durP2;ratioP2;P2;SDS_P1;SDS_P2;PMS_P1;PMS_P2;Temp;Humidity;BMP_temperature;BMP_pressure;BME280_temperature;BME280_humidity;BME280_pressure;Samples;Min_cycle;Max_cycle;Signal;HPM_P1;HPM_P2
2021/08/27 00:02:27;;;;;;;5.22;1.48;;;;;;;14.13;100.00;101732.09;2608577;36;20146;-66
2021/08/27 00:04:55;;;;;;;5.53;1.10;;;;;;;14.11;100.00;101728.66;2607721;36;20030;-67
2021/08/27 00:07:23;;;;;;;5.60;1.10;;;;;;;13.96;100.00;101730.88;2609236;36;20150;-66
2021/08/27 00:09:54;;;;;;;7.70;1.70;;;;;;;13.86;100.00;101731.84;2608168;36;20022;-66
2021/08/27 00:12:22;;;;;;;6.75;1.70;;;;;;;13.72;100.00;101733.03;2608496;36;20137;-67
2021/08/27 00:14:51;;;;;;;7.97;1.30;;;;;;;13.72;100.00;101733.03;2605881;36;20035;-66
2021/08/27 00:17:19;;;;;;;6.15;1.33;;;;;;;13.70;100.00;101737.75;2607447;36;20173;-65
2021/08/27 00:19:47;;;;;;;8.20;1.60;;;;;;;13.68;100.00;101740.59;2606826;36;20124;-66
2021/08/27 00:22:15;;;;;;;4.57;1.45;;;;;;;13.62;100.00;101741.97;2608636;36;20110;-66
2021/08/27 00:27:17;;;;;;;7.72;1.60;;;;;;;13.61;100.00;101734.00;2608607;54;20650;-66
2021/08/27 00:29:45;;;;;;;6.20;1.52;;;;;;;13.61;100.00;101729.44;2609678;31;20408;-66
2021/08/27 00:32:14;;;;;;;5.85;1.35;;;;;;;13.54;100.00;101724.72;2609388;36;20169;-66
2021/08/27 00:34:42;;;;;;;7.07;1.27;;;;;;;13.60;100.00;101732.28;2610073;36;20117;-65
2021/08/27 00:37:10;;;;;;;8.35;1.63;;;;;;;13.55;100.00;101735.41;2608655;36;20068;-66
2021/08/27 00:39:38;;;;;;;6.07;1.58;;;;;;;13.62;100.00;101736.56;2604930;36;20117;-65
2021/08/27 00:42:07;;;;;;;9.27;1.88;;;;;;;13.71;100.00;101732.19;2607162;36;20142;-67
2021/08/27 00:44:38;;;;;;;7.77;1.73;;;;;;;13.69;100.00;101733.31;2606621;36;20145;-65
2021/08/27 00:47:06;;;;;;;6.85;1.65;;;;;;;13.63;100.00;101726.59;2602550;36;20878;-68
2021/08/27 00:49:35;;;;;;;7.10;1.63;;;;;;;13.69;100.00;101731.47;2604538;36;20057;-66
2021/08/27 00:52:03;;;;;;;4.82;1.25;;;;;;;13.69;100.00;101728.75;2610438;36;20514;-67
2021/08/27 00:54:31;;;;;;;9.55;2.33;;;;;;;13.64;100.00;101729.16;2608113;36;20150;-68
2021/08/27 00:56:59;;;;;;;8.70;1.83;;;;;;;13.54;100.00;101725.56;2606773;36;20129;-66
2021/08/27 00:59:28;;;;;;;9.00;1.60;;;;;;;13.51;100.00;101730.38;2605571;31;20110;-67
2021/08/27 01:01:58;;;;;;;3.75;1.30;;;;;;;13.52;100.00;101721.28;2603679;36;21393;-66
2021/08/27 01:04:27;;;;;;;5.72;1.50;;;;;;;13.51;100.00;101720.41;2606491;36;20113;-67
2021/08/27 01:07:00;;;;;;;7.60;2.63;;;;;;;13.51;100.00;101723.13;2603787;36;20093;-67
2021/08/27 01:09:39;;;;;;;7.70;1.73;;;;;;;13.45;100.00;101712.84;2605801;36;20288;-66
2021/08/27 01:12:13;;;;;;;9.60;2.13;;;;;;;13.63;100.00;101711.25;2605660;36;20495;-67
2021/08/27 01:14:43;;;;;;;9.02;1.60;;;;;;;13.84;100.00;101715.75;2606012;36;20134;-66
2021/08/27 01:17:21;;;;;;;6.32;1.70;;;;;;;13.90;100.00;101717.03;2606998;36;20634;-65
2021/08/27 01:20:08;;;;;;;8.03;1.60;;;;;;;13.91;100.00;101719.59;2605370;36;20046;-67
2021/08/27 01:23:08;;;;;;;8.82;1.67;;;;;;;13.90;100.00;101723.31;2609460;36;20029;-66
2021/08/27 01:25:39;;;;;;;7.45;1.67;;;;;;;13.88;100.00;101719.88;2606443;36;20031;-66
2021/08/27 01:28:10;;;;;;;5.60;1.50;;;;;;;13.92;100.00;101726.72;2604846;36;20034;-66
2021/08/27 01:30:45;;;;;;;8.07;1.95;;;;;;;13.96;100.00;101717.34;2607526;31;20138;-67
2021/08/27 01:33:18;;;;;;;6.78;1.45;;;;;;;13.99;100.00;101727.91;2607682;36;20103;-66
2021/08/27 01:35:54;;;;;;;8.55;1.80;;;;;;;14.02;100.00;101721.34;2603310;36;20173;-67
2021/08/27 01:38:26;;;;;;;7.05;1.60;;;;;;;14.02;100.00;101727.63;2610521;36;20069;-66
2021/08/27 01:40:56;;;;;;;3.88;1.42;;;;;;;14.00;100.00;101724.19;2606187;36;20591;-66
2021/08/27 01:43:26;;;;;;;5.55;1.35;;;;;;;14.01;100.00;101723.19;2608863;36;20527;-65
2021/08/27 01:45:59;;;;;;;4.13;1.38;;;;;;;14.02;100.00;101726.78;2607638;36;20163;-65
2021/08/27 01:48:30;;;;;;;5.43;1.55;;;;;;;14.01;100.00;101717.78;2607538;36;20106;-65
2021/08/27 01:51:01;;;;;;;4.82;1.15;;;;;;;13.99;100.00;101717.06;2607574;36;20073;-64
2021/08/27 01:53:30;;;;;;;4.90;1.05;;;;;;;13.93;100.00;101712.22;2607187;36;20145;-65
2021/08/27 01:55:59;;;;;;;;;;;;;;;13.92;100.00;101710.50;2607485;36;20110;-67
2021/08/27 01:58:28;;;;;;;2.35;1.08;;;;;;;13.87;100.00;101712.75;2609185;36;20026;-65
2021/08/27 02:00:58;;;;;;;4.95;1.10;;;;;;;13.93;100.00;101712.22;2608844;31;20137;-66
2021/08/27 02:03:30;;;;;;;5.85;1.00;;;;;;;13.90;100.00;101717.03;2607493;36;20603;-66
2021/08/27 02:06:02;;;;;;;4.07;1.00;;;;;;;13.91;100.00;101718.75;2607380;31;20538;-66
2021/08/27 02:08:34;;;;;;;3.00;0.85;;;;;;;14.04;100.00;101722.06;2604399;31;20404;-68
2021/08/27 02:11:03;;;;;;;3.72;0.98;;;;;;;13.93;100.00;101722.19;2602440;36;20038;-66
2021/08/27 02:13:32;;;;;;;3.28;0.90;;;;;;;13.88;100.00;101719.03;2604935;36;20027;-66
2021/08/27 02:16:01;;;;;;;4.90;1.27;;;;;;;13.85;100.00;101725.56;2610329;36;20126;-66
2021/08/27 02:18:31;;;;;;;5.88;1.25;;;;;;;13.85;100.00;101720.16;2604158;36;20026;-67
2021/08/27 02:21:03;;;;;;;12.00;1.52;;;;;;;13.84;100.00;101727.41;2611670;36;20151;-66
2021/08/27 02:23:31;;;;;;;5.80;1.00;;;;;;;13.87;100.00;101729.00;2601506;36;20130;-65
2021/08/27 02:26:01;;;;;;;5.25;1.25;;;;;;;13.89;100.00;101731.56;2603153;31;20153;-66
2021/08/27 02:28:30;;;;;;;3.53;0.95;;;;;;;13.94;100.00;101727.47;2605133;36;20098;-65
2021/08/27 02:30:59;;;;;;;;;;;;;;;13.97;100.00;101729.91;2604774;36;20137;-67
2021/08/27 02:33:29;;;;;;;3.53;1.10;;;;;;;13.87;100.00;101731.72;2606389;36;20053;-66
2021/08/27 02:36:04;;;;;;;3.40;1.08;;;;;;;13.83;100.00;101739.22;2602710;36;20141;-66
2021/08/27 02:38:35;;;;;;;6.22;1.50;;;;;;;13.74;100.00;101742.75;2608739;31;20605;-67
2021/08/27 02:41:03;;;;;;;7.95;1.45;;;;;;;13.69;100.00;101742.28;2607136;36;20129;-65
2021/08/27 02:43:32;;;;;;;4.93;1.30;;;;;;;13.57;100.00;101744.22;2606423;36;20030;-66
2021/08/27 02:46:00;;;;;;;3.47;1.40;;;;;;;13.58;100.00;101751.34;2603125;36;20713;-65
2021/08/27 02:48:29;;;;;;;3.28;1.08;;;;;;;13.63;100.00;101750.94;2600793;36;20308;-65
2021/08/27 02:51:05;;;;;;;4.25;1.45;;;;;;;13.71;100.00;101756.56;2602695;36;20586;-65
2021/08/27 02:53:39;;;;;;;5.32;1.42;;;;;;;13.79;100.00;101754.00;2603503;36;20039;-67
2021/08/27 02:56:14;;;;;;;5.55;1.45;;;;;;;13.86;100.00;101754.34;2603709;36;20523;-65
2021/08/27 02:58:47;;;;;;;3.47;1.20;;;;;;;14.00;100.00;101745.84;2602374;36;20126;-66
2021/08/27 03:01:24;;;;;;;6.75;1.50;;;;;;;13.98;100.00;101744.28;2599496;36;20061;-65
2021/08/27 03:04:03;;;;;;;5.20;1.30;;;;;;;13.98;100.00;101741.56;2602455;36;20050;-66
2021/08/27 03:06:37;;;;;;;4.03;1.52;;;;;;;13.98;100.00;101745.13;2600702;31;20118;-66
2021/08/27 03:09:11;;;;;;;4.82;1.17;;;;;;;13.98;100.00;101734.28;2607267;36;21226;-67
2021/08/27 03:11:44;;;;;;;6.63;1.70;;;;;;;13.99;100.00;101748.69;2604781;36;20121;-67
2021/08/27 03:14:15;;;;;;;6.38;1.70;;;;;;;14.01;100.00;101738.59;2605991;36;20151;-66
2021/08/27 03:16:49;;;;;;;4.07;1.38;;;;;;;14.11;100.00;101742.19;2604425;31;20026;-65
2021/08/27 03:19:24;;;;;;;4.53;1.25;;;;;;;14.17;100.00;101741.63;2605133;36;20543;-65
2021/08/27 03:22:01;;;;;;;8.23;1.83;;;;;;;14.15;100.00;101745.47;2602268;36;20027;-67
2021/08/27 03:24:36;;;;;;;3.88;1.45;;;;;;;14.12;100.00;101746.59;2602631;36;20765;-65
2021/08/27 03:27:08;;;;;;;3.72;1.27;;;;;;;14.09;100.00;101749.59;2608797;36;20181;-65
2021/08/27 03:29:42;;;;;;;5.47;1.45;;;;;;;14.05;100.00;101744.59;2607696;36;20181;-65
2021/08/27 03:32:12;;;;;;;5.38;1.48;;;;;;;13.97;100.00;101750.66;2607389;36;20089;-65
2021/08/27 03:34:44;;;;;;;4.22;1.80;;;;;;;13.91;100.00;101749.34;2602174;36;20081;-65
2021/08/27 03:37:13;;;;;;;4.97;1.30;;;;;;;13.86;100.00;101750.78;2609076;36;20586;-65
2021/08/27 03:39:44;;;;;;;4.75;1.92;;;;;;;13.82;100.00;101742.06;2609766;36;20151;-65
2021/08/27 03:42:16;;;;;;;5.78;1.70;;;;;;;13.80;100.00;101744.91;2607333;36;20137;-66
2021/08/27 03:44:45;;;;;;;5.47;1.52;;;;;;;13.81;100.00;101745.78;2611197;31;21206;-66
2021/08/27 03:47:14;;;;;;;;;;;;;;;13.80;100.00;101746.78;2604525;36;20068;-66
2021/08/27 03:49:43;;;;;;;3.08;1.45;;;;;;;13.79;100.00;101750.47;2601879;36;19958;-65
2021/08/27 03:52:12;;;;;;;5.60;1.60;;;;;;;13.86;100.00;101754.34;2603869;36;21445;-66
2021/08/27 03:54:44;;;;;;;5.15;1.63;;;;;;;13.87;100.00;101756.06;2607480;36;20034;-64
2021/08/27 03:57:14;;;;;;;5.38;1.48;;;;;;;13.87;100.00;101745.25;2602458;36;20065;-65
2021/08/27 03:59:42;;;;;;;4.88;1.70;;;;;;;13.90;100.00;101754.91;2602111;36;20126;-65
2021/08/27 04:02:14;;;;;;;4.50;1.67;;;;;;;13.91;100.00;101754.78;2606534;31;20126;-66
2021/08/27 04:04:43;;;;;;;6.40;1.65;;;;;;;13.91;100.00;101757.47;2607395;36;20122;-65
2021/08/27 04:07:11;;;;;;;8.73;1.77;;;;;;;13.88;100.00;101748.78;2608287;36;20148;-65
2021/08/27 04:09:40;;;;;;;4.90;1.40;;;;;;;13.85;100.00;101752.63;2609179;36;20542;-66
2021/08/27 04:12:11;;;;;;;9.05;1.88;;;;;;;13.88;100.00;101746.09;2609123;36;20515;-65
2021/08/27 04:14:39;;;;;;;4.28;1.90;;;;;;;13.88;100.00;101755.03;2605524;36;20122;-66
2021/08/27 04:17:07;;;;;;;5.25;1.50;;;;;;;13.86;100.00;101748.94;2609514;36;20022;-65
2021/08/27 04:19:37;;;;;;;8.98;1.80;;;;;;;13.89;100.00;101751.34;2610740;36;20165;-67
2021/08/27 04:22:05;;;;;;;5.22;1.40;;;;;;;13.92;100.00;101758.34;2604536;36;20117;-65
2021/08/27 04:24:34;;;;;;;8.32;1.80;;;;;;;13.94;100.00;101756.34;2607135;36;20110;-65
2021/08/27 04:27:02;;;;;;;6.55;1.67;;;;;;;13.97;100.00;101748.84;2605795;36;20034;-65
2021/08/27 04:29:33;;;;;;;4.82;1.35;;;;;;;14.00;100.00;101750.41;2607377;36;20026;-65
2021/08/27 04:32:01;;;;;;;7.07;1.60;;;;;;;13.96;100.00;101749.81;2603818;36;20666;-66
2021/08/27 04:34:29;;;;;;;5.22;1.60;;;;;;;13.99;100.00;101754.97;2609705;36;20527;-65
2021/08/27 04:36:57;;;;;;;7.13;1.70;;;;;;;13.87;100.00;101753.34;2608975;36;20034;-65
2021/08/27 04:39:26;;;;;;;6.85;1.30;;;;;;;14.00;100.00;101753.97;2608814;36;20134;-65
2021/08/27 04:41:54;;;;;;;6.33;1.17;;;;;;;14.05;100.00;101747.31;2606580;31;20138;-66
2021/08/27 04:44:23;;;;;;;5.70;1.60;;;;;;;13.97;100.00;101756.97;2610295;36;20380;-66
2021/08/27 04:46:53;;;;;;;3.40;1.20;;;;;;;14.06;100.00;101754.41;2607748;36;20110;-65
2021/08/27 04:49:22;;;;;;;5.45;1.40;;;;;;;14.16;100.00;101755.28;2610218;31;20157;-66
2021/08/27 04:51:50;;;;;;;3.40;1.63;;;;;;;14.20;100.00;101757.59;2606712;36;20117;-66
2021/08/27 04:54:18;;;;;;;5.18;1.30;;;;;;;14.28;100.00;101750.63;2608562;36;20346;-66
2021/08/27 04:56:47;;;;;;;3.53;1.33;;;;;;;14.27;100.00;101751.66;2609536;36;20094;-66
2021/08/27 04:59:15;;;;;;;5.45;1.20;;;;;;;14.24;100.00;101758.19;2608477;36;20038;-66
2021/08/27 05:01:43;;;;;;;4.57;1.30;;;;;;;14.25;100.00;101761.75;2608756;31;20651;-66
2021/08/27 05:04:14;;;;;;;5.32;1.17;;;;;;;14.23;100.00;101767.28;2611111;36;20121;-66
2021/08/27 05:06:42;;;;;;;5.65;1.40;;;;;;;14.23;100.00;101767.28;2607848;36;20109;-64
2021/08/27 05:09:11;;;;;;;6.75;1.30;;;;;;;14.36;100.00;101757.06;2608049;36;20153;-64
2021/08/27 05:11:39;;;;;;;4.32;1.20;;;;;;;14.30;100.00;101763.03;2609596;36;20133;-65
2021/08/27 05:14:08;;;;;;;5.25;1.17;;;;;;;14.48;100.00;101755.09;2609673;31;20122;-64
2021/08/27 05:16:36;;;;;;;3.70;1.25;;;;;;;14.44;100.00;101758.22;2607892;36;20034;-66
2021/08/27 05:19:04;;;;;;;5.10;1.43;;;;;;;14.36;100.00;101757.06;2606843;36;20166;-65
2021/08/27 05:21:37;;;;;;;4.80;1.80;;;;;;;14.37;100.00;101752.53;2608715;36;20129;-64
2021/08/27 05:24:05;;;;;;;4.43;1.20;;;;;;;14.41;100.00;101758.50;2610412;36;20519;-66
2021/08/27 05:26:34;;;;;;;5.43;1.17;;;;;;;14.40;100.00;101756.78;2608009;36;20125;-64
2021/08/27 05:29:02;;;;;;;6.28;1.20;;;;;;;14.44;100.00;101752.81;2609748;36;20133;-64
2021/08/27 05:31:31;;;;;;;8.23;1.35;;;;;;;14.46;100.00;101767.94;2609274;36;20141;-65
2021/08/27 05:36:26;;;;;;;6.40;1.35;;;;;;;14.53;100.00;101766.38;2608934;36;20022;-64
2021/08/27 05:38:56;;;;;;;7.65;1.52;;;;;;;14.54;100.00;101765.34;2614509;36;20037;-65
2021/08/27 05:41:25;;;;;;;4.75;1.20;;;;;;;14.63;100.00;101766.41;2606060;36;20536;-65
2021/08/27 05:43:53;;;;;;;3.70;1.20;;;;;;;14.65;100.00;101777.97;2607809;36;20042;-65
2021/08/27 05:46:21;;;;;;;4.53;1.43;;;;;;;14.67;100.00;101773.25;2604184;31;20145;-65
2021/08/27 05:48:49;;;;;;;4.75;1.30;;;;;;;14.73;100.00;101773.72;2610290;36;20367;-66
2021/08/27 05:51:17;;;;;;;3.65;1.25;;;;;;;14.82;100.00;101764.72;2607284;36;20126;-64
2021/08/27 05:53:46;;;;;;;3.63;1.60;;;;;;;14.77;100.00;101773.28;2602661;36;20567;-66
2021/08/27 05:56:17;;;;;;;5.40;1.30;;;;;;;14.85;100.00;101778.00;2605625;31;20630;-65
2021/08/27 05:58:47;;;;;;;3.17;1.27;;;;;;;14.87;100.00;101779.56;2603788;36;20169;-65
2021/08/27 06:01:16;;;;;;;8.52;1.60;;;;;;;14.82;100.00;101779.13;2603506;31;20031;-66
2021/08/27 06:03:44;;;;;;;6.50;1.20;;;;;;;14.85;100.00;101778.84;2605775;36;20027;-64
2021/08/27 06:06:12;;;;;;;7.70;1.73;;;;;;;14.95;100.00;101789.69;2607800;36;20446;-65
2021/08/27 06:08:40;;;;;;;2.85;1.20;;;;;;;14.96;100.00;101787.84;2607494;36;20177;-65
2021/08/27 06:11:09;;;;;;;3.77;1.17;;;;;;;15.06;100.00;101785.97;2607376;31;20519;-65
2021/08/27 06:13:39;;;;;;;6.93;1.38;;;;;;;15.00;100.00;101782.00;2605292;36;20118;-65
2021/08/27 06:16:08;;;;;;;5.40;1.40;;;;;;;15.05;100.00;101785.13;2608902;31;20598;-65
2021/08/27 06:18:36;;;;;;;6.25;1.33;;;;;;;15.02;100.00;101785.41;2609046;36;20145;-65
2021/08/27 06:21:04;;;;;;;3.78;1.05;;;;;;;15.04;100.00;101794.25;2607625;36;20122;-65
2021/08/27 06:23:32;;;;;;;4.47;1.15;;;;;;;15.13;100.00;101786.28;2608583;36;20122;-65
2021/08/27 06:26:01;;;;;;;5.78;1.40;;;;;;;15.11;100.00;101789.13;2607786;36;20042;-65
2021/08/27 06:28:29;;;;;;;5.80;1.40;;;;;;;15.14;100.00;101783.41;2605393;36;20125;-65
2021/08/27 06:31:00;;;;;;;9.52;1.45;;;;;;;15.20;100.00;101784.69;2606181;36;20126;-65
2021/08/27 06:33:30;;;;;;;3.70;1.23;;;;;;;15.28;100.00;101781.25;2603044;36;20117;-66
2021/08/27 06:35:58;;;;;;;4.03;1.00;;;;;;;15.39;100.00;101779.25;2605899;36;20044;-65
2021/08/27 06:38:26;;;;;;;3.60;1.47;;;;;;;15.37;100.00;101773.13;2602446;32;20153;-64
2021/08/27 06:40:57;;;;;;;3.75;1.00;;;;;;;15.46;100.00;101778.66;2610146;36;20429;-64
2021/08/27 06:43:29;;;;;;;4.05;1.23;;;;;;;15.48;100.00;101784.81;2608648;36;20042;-66
2021/08/27 06:46:03;;;;;;;3.40;1.33;;;;;;;15.32;100.00;101782.69;2604020;36;20030;-65
2021/08/27 06:48:32;;;;;;;6.63;1.33;;;;;;;15.25;100.00;101776.97;2607354;36;20547;-65
2021/08/27 06:51:00;;;;;;;6.40;1.40;;;;;;;15.21;100.00;101786.44;2608233;36;20118;-64
2021/08/27 06:53:29;;;;;;;3.80;1.47;;;;;;;15.23;100.00;101789.84;2608048;36;20022;-65
2021/08/27 06:55:58;;;;;;;4.72;1.15;;;;;;;15.27;100.00;101776.81;2607403;36;20078;-64
2021/08/27 06:58:26;;;;;;;6.93;1.95;;;;;;;15.32;100.00;101782.69;2606879;36;20077;-67
2021/08/27 07:00:54;;;;;;;4.53;1.63;;;;;;;15.20;100.00;101792.84;2610279;36;20039;-64
2021/08/27 07:03:26;;;;;;;4.77;1.43;;;;;;;15.28;100.00;101789.41;2608526;36;20665;-64
2021/08/27 07:05:55;;;;;;;8.18;1.77;;;;;;;15.32;100.00;101797.09;2610357;36;20426;-66
2021/08/27 07:08:23;;;;;;;6.15;1.85;;;;;;;15.42;100.00;101795.22;2604825;36;20065;-65
2021/08/27 07:10:52;;;;;;;6.50;1.75;;;;;;;15.53;100.00;101796.06;2604794;36;20030;-66
2021/08/27 07:13:20;;;;;;;7.38;2.05;;;;;;;15.55;100.00;101788.66;2599727;36;21396;-65
2021/08/27 07:15:49;;;;;;;9.83;2.03;;;;;;;15.54;100.00;101800.50;2607571;36;20161;-64
2021/08/27 07:18:18;;;;;;;11.77;2.28;;;;;;;15.67;100.00;101798.34;2606850;36;20422;-66
2021/08/27 07:20:48;;;;;;;5.97;2.10;;;;;;;15.70;100.00;101806.19;2606417;36;20036;-66
2021/08/27 07:23:17;;;;;;;10.23;2.20;;;;;;;15.72;100.00;101804.19;2606105;36;20188;-66
2021/08/27 07:25:45;;;;;;;8.87;2.30;;;;;;;15.61;100.00;101812.50;2608285;36;20026;-65
2021/08/27 07:28:14;;;;;;;5.22;2.10;;;;;;;15.37;100.00;101827.38;2607584;36;20129;-66
2021/08/27 07:30:42;;;;;;;6.90;1.98;;;;;;;15.33;100.00;101836.78;2608121;36;20065;-65
2021/08/27 07:33:10;;;;;;;5.80;1.92;;;;;;;15.15;100.00;101838.50;2609003;36;20031;-65
2021/08/27 07:35:38;;;;;;;6.15;1.73;;;;;;;15.18;100.00;101825.53;2609653;36;20153;-65
2021/08/27 07:38:10;;;;;;;6.03;1.90;;;;;;;15.09;100.00;101820.09;2606501;31;20121;-66
2021/08/27 07:40:38;;;;;;;5.93;1.75;;;;;;;15.17;100.00;101814.81;2608454;36;20617;-66
2021/08/27 07:43:07;;;;;;;5.55;1.73;;;;;;;15.37;100.00;101812.94;2610241;36;20142;-65
2021/08/27 07:45:35;;;;;;;4.90;1.52;;;;;;;15.59;100.00;101809.94;2608964;36;20181;-66
2021/08/27 07:48:03;;;;;;;4.87;1.70;;;;;;;15.59;100.00;101809.94;2605807;36;20022;-67
2021/08/27 07:50:31;;;;;;;6.15;1.90;;;;;;;15.87;100.00;101812.75;2608709;31;20381;-66
2021/08/27 07:53:00;;;;;;;6.63;2.00;;;;;;;15.86;100.00;101815.63;2610122;36;20027;-66
2021/08/27 07:55:30;;;;;;;6.10;2.50;;;;;;;15.71;100.00;101812.47;2607013;31;20057;-67
2021/08/27 07:57:59;;;;;;;9.20;2.15;;;;;;;15.81;100.00;101820.63;2605607;31;20133;-67
2021/08/27 08:00:27;;;;;;;5.15;1.92;;;;;;;15.99;100.00;101818.84;2615379;36;20073;-67
2021/08/27 08:02:55;;;;;;;9.95;2.20;;;;;;;16.07;100.00;101818.94;2617732;36;20080;-67
2021/08/27 08:05:23;;;;;;;6.95;2.35;;;;;;;15.89;100.00;101816.16;2616665;36;20034;-68
2021/08/27 08:07:51;;;;;;;3.30;1.58;;;;;;;15.94;100.00;101813.88;2617143;36;20035;-66
2021/08/27 08:10:20;;;;;;;5.57;1.50;;;;;;;15.83;100.00;101818.63;2617355;36;20530;-66
2021/08/27 08:12:51;;;;;;;4.13;1.63;;;;;;;15.97;100.00;101818.13;2617198;31;20023;-65
2021/08/27 08:15:21;;;;;;;3.88;1.25;;;;;;;16.09;100.00;101819.69;2616859;36;20149;-66
2021/08/27 08:17:49;;;;;;;2.47;1.10;;;;;;;16.23;100.00;101822.91;2617637;31;20029;-66
2021/08/27 08:20:17;;;;;;;4.50;1.50;;;;;;;16.34;100.00;101814.56;2618396;31;20524;-66
2021/08/27 08:22:45;;;;;;;4.83;1.60;;;;;;;16.56;100.00;101826.00;2614372;47;20066;-64
2021/08/27 08:25:14;;;;;;;2.55;1.20;;;;;;;16.69;100.00;101823.78;2616872;36;20114;-65
2021/08/27 08:27:42;;;;;;;5.70;1.45;;;;;;;16.91;100.00;101810.81;2616331;31;20039;-65
2021/08/27 08:30:14;;;;;;;4.15;1.50;;;;;;;16.92;100.00;101810.66;2616240;36;20073;-67
2021/08/27 08:32:42;;;;;;;3.28;1.38;;;;;;;17.13;100.00;101817.66;2616173;36;20026;-66
2021/08/27 08:35:10;;;;;;;4.70;1.33;;;;;;;17.31;100.00;101809.47;2615599;36;20408;-65
2021/08/27 08:37:41;;;;;;;5.80;1.60;;;;;;;17.31;100.00;101806.75;2617152;31;20026;-65
2021/08/27 08:40:14;;;;;;;4.43;1.60;;;;;;;17.45;100.00;101797.16;2617883;31;20496;-65
2021/08/27 08:42:42;;;;;;;6.53;2.00;;;;;;;17.21;100.00;101800.53;2616822;31;20634;-65
2021/08/27 08:45:14;;;;;;;4.07;2.00;;;;;;;17.06;100.00;101803.78;2616769;36;20118;-65
2021/08/27 08:47:45;;;;;;;4.50;1.55;;;;;;;17.13;100.00;101809.47;2615944;36;20189;-65
2021/08/27 08:50:14;;;;;;;7.18;1.58;;;;;;;17.21;100.00;101805.97;2616638;36;20035;-67
2021/08/27 08:52:44;;;;;;;7.05;1.75;;;;;;;17.22;100.00;101797.66;2617349;36;20513;-65
2021/08/27 08:55:13;;;;;;;5.45;2.15;;;;;;;17.57;100.00;101793.16;2616257;36;20030;-65
2021/08/27 08:57:41;;;;;;;7.88;1.58;;;;;;;17.65;100.00;101797.81;2617293;36;20100;-66
2021/08/27 09:00:11;;;;;;;7.32;1.50;;;;;;;17.71;100.00;101791.75;2616719;36;20147;-65
2021/08/27 09:02:42;;;;;;;5.63;2.05;;;;;;;17.75;100.00;101787.66;2617688;31;20034;-66
2021/08/27 09:05:11;;;;;;;7.07;2.00;;;;;;;18.24;100.00;101791.69;2617786;36;20121;-65
2021/08/27 09:07:39;;;;;;;6.55;2.10;;;;;;;18.23;100.00;101784.53;2616664;36;20042;-66
2021/08/27 09:10:08;;;;;;;8.48;2.55;;;;;;;18.68;100.00;101781.47;2615732;36;20161;-67
2021/08/27 09:12:36;;;;;;;7.82;2.55;;;;;;;18.62;100.00;101778.53;2616869;36;20023;-67
2021/08/27 09:15:07;;;;;;;4.07;2.20;;;;;;;18.34;100.00;101776.94;2616899;36;20642;-66
2021/08/27 09:17:37;;;;;;;7.15;3.17;;;;;;;18.09;100.00;101786.84;2617731;36;20022;-65
2021/08/27 09:20:10;;;;;;;8.52;3.08;;;;;;;18.14;100.00;101778.22;2616137;36;20022;-66
2021/08/27 09:22:52;;;;;;;10.23;4.93;;;;;;;18.15;100.00;101783.50;2616351;36;20023;-66
2021/08/27 09:25:22;;;;;;;11.25;2.83;;;;;;;17.80;100.00;101782.59;2616115;36;20154;-65
2021/08/27 09:28:06;;;;;;;8.95;2.80;;;;;;;17.81;100.00;101792.47;2617278;31;20530;-64
2021/08/27 09:30:36;;;;;;;5.60;2.50;;;;;;;17.26;100.00;101804.50;2617101;36;20022;-66
2021/08/27 09:35:34;;;;;;;7.20;1.98;;;;;;;16.29;100.00;101814.16;2616303;46;20061;-65
2021/08/27 09:38:03;;;;;;;7.13;2.38;;;;;;;16.42;100.00;101795.63;2617196;36;20073;-65
2021/08/27 09:40:32;;;;;;;7.90;2.03;;;;;;;16.29;100.00;101822.28;2616697;36;20122;-66
2021/08/27 09:43:02;;;;;;;5.75;2.47;;;;;;;16.02;100.00;101829.41;2617114;36;20050;-65
2021/08/27 09:45:40;;;;;;;4.78;1.65;;;;;;;16.15;100.00;101852.66;2616350;36;20598;-65
2021/08/27 09:48:10;;;;;;;8.88;2.05;;;;;;;15.98;100.00;101847.00;2616844;36;20030;-66
2021/08/27 09:50:43;;;;;;;6.13;1.52;;;;;;;15.89;100.00;101831.59;2616775;36;20057;-65
2021/08/27 09:53:14;;;;;;;9.05;1.70;;;;;;;16.08;100.00;101831.53;2616867;31;20037;-66
2021/08/27 09:55:56;;;;;;;6.95;2.28;;;;;;;16.16;100.00;101822.63;2616845;36;20038;-65
2021/08/27 09:58:25;;;;;;;4.25;1.30;;;;;;;16.53;100.00;101813.56;2617442;36;20537;-65
2021/08/27 10:01:03;;;;;;;6.78;1.60;;;;;;;16.51;100.00;101815.59;2616132;36;20081;-65
2021/08/27 10:03:31;;;;;;;7.60;1.58;;;;;;;16.51;100.00;101812.88;2616004;36;20026;-64
2021/08/27 10:06:03;;;;;;;7.30;1.92;;;;;;;16.81;100.00;101810.84;2616365;31;20637;-64
2021/08/27 10:08:36;;;;;;;7.20;1.58;;;;;;;17.35;100.00;101805.41;2616075;36;20027;-65
2021/08/27 10:11:19;;;;;;;7.30;1.52;;;;;;;17.75;100.00;101795.84;2617016;36;20037;-64
2021/08/27 10:13:48;;;;;;;3.85;1.52;;;;;;;17.99;100.00;101791.56;2617236;36;20069;-64
2021/08/27 10:16:16;;;;;;;2.25;1.10;;;;;;;18.49;100.00;101793.50;2616618;36;20035;-64
2021/08/27 10:18:44;;;;;;;5.90;1.30;;;;;;;18.19;100.00;101782.13;2617466;31;20503;-64
2021/08/27 10:21:15;;;;;;;5.27;1.47;;;;;;;17.96;100.00;101791.91;2617434;31;20561;-65
2021/08/27 10:23:46;;;;;;;3.90;1.30;;;;;;;17.89;100.00;101793.53;2617361;36;20349;-65
2021/08/27 10:26:17;;;;;;;3.95;1.02;;;;;;;17.74;100.00;101791.41;2617050;31;20531;-65
2021/08/27 10:28:46;;;;;;;4.95;1.10;;;;;;;17.58;100.00;101802.19;2617302;36;20038;-66
2021/08/27 10:31:15;;;;;;;5.97;2.70;;;;;;;17.62;100.00;101798.13;2617259;36;20062;-67
2021/08/27 10:34:01;;;;;;;2.70;1.30;;;;;;;17.88;100.00;101797.28;2617195;36;20121;-66
2021/08/27 10:36:49;;;;;;;4.28;1.40;;;;;;;17.82;100.00;101786.00;2618470;31;20527;-66
2021/08/27 10:39:56;;;;;;;2.90;1.17;;;;;;;17.91;100.00;101786.94;2617200;36;20030;-66
2021/08/27 10:43:00;;;;;;;6.35;1.52;;;;;;;18.36;100.00;101779.50;2617862;31;20533;-67
2021/08/27 10:45:56;;;;;;;4.30;1.75;;;;;;;18.63;100.00;101791.16;2616275;36;20069;-68
2021/08/27 10:48:26;;;;;;;6.78;1.50;;;;;;;18.89;100.00;101780.16;2616906;36;20089;-68
2021/08/27 10:50:56;;;;;;;4.60;1.45;;;;;;;19.21;100.00;101782.06;2617281;31;20030;-66
2021/08/27 10:53:30;;;;;;;5.63;2.00;;;;;;;18.99;100.00;101771.81;2617081;36;20055;-69
2021/08/27 10:55:59;;;;;;;6.75;1.50;;;;;;;19.11;100.00;101775.91;2605243;36;20034;-67
2021/08/27 10:58:45;;;;;;;5.57;1.58;;;;;;;18.71;100.00;101780.25;2604092;36;20033;-69
2021/08/27 11:01:32;;;;;;;6.38;1.92;;;;;;;18.94;100.00;101772.31;2617828;31;20023;-66
2021/08/27 11:04:14;;;;;;;6.18;1.50;;;;;;;19.22;100.00;101770.09;2618085;36;20049;-68
2021/08/27 11:06:46;;;;;;;6.68;1.90;;;;;;;19.19;100.00;101769.59;2617921;36;20035;-66
2021/08/27 11:09:28;;;;;;;8.90;1.70;;;;;;;19.30;100.00;101765.66;2617975;36;20022;-67
2021/08/27 11:12:14;;;;;;;7.72;1.50;;;;;;;19.21;100.00;101762.97;2617853;36;20080;-67
2021/08/27 11:14:43;;;;;;;8.27;1.70;;;;;;;19.31;100.00;101756.47;2617403;36;20535;-67
2021/08/27 11:17:13;;;;;;;6.25;2.05;;;;;;;18.97;100.00;101771.97;2617851;36;20109;-67
2021/08/27 11:19:48;;;;;;;11.07;2.40;;;;;;;19.12;100.00;101763.97;2618075;36;20077;-67
2021/08/27 11:22:28;;;;;;;9.27;2.20;;;;;;;19.56;100.00;101760.84;2616179;36;20031;-67
2021/08/27 11:25:17;;;;;;;7.93;2.00;;;;;;;19.63;100.00;101768.38;2617968;36;20547;-67
2021/08/27 11:28:16;;;;;;;10.85;2.60;;;;;;;19.66;100.00;101765.28;2618003;31;20027;-66
2021/08/27 11:30:47;;;;;;;7.88;2.22;;;;;;;19.11;100.00;101761.41;2618331;36;20445;-68
2021/08/27 11:33:45;;;;;;;9.50;2.50;;;;;;;18.92;100.00;101760.72;2618711;31;20668;-68
2021/08/27 11:36:14;;;;;;;10.10;2.05;;;;;;;18.80;100.00;101764.75;2617771;36;20030;-67
2021/08/27 11:38:43;;;;;;;9.00;2.45;;;;;;;18.58;100.00;101760.78;2617481;36;20118;-68
2021/08/27 11:41:14;;;;;;;8.32;2.38;;;;;;;18.65;100.00;101759.94;2617293;31;20406;-67
2021/08/27 11:43:47;;;;;;;7.10;1.80;;;;;;;18.43;100.00;101764.16;2616862;31;20040;-67